CYVR/YVR METAR and TAF weather

Enter ICAO airport designator
Station Type Date Time Source
CYVR METAR 2018/10/22 17:00 UTC NOAA

CYVR 221700Z VRB02KT 30SM FEW005 FEW250 09/09 A3000 RMK CF1CI2 CF TR CONTRAILS SLP160


Station Type Date Time Source
CYVR Decoded METAR 2018/10/22 17:00 UTC NOAA

Vancouver International Air-Port, B. C., Canada (CYVR) 49-11N 123-10W 2M
Oct 22, 2018 - 01:00 PM EDT / 2018.10.22 1700 UTC
Wind: Variable at 2 MPH (2 KT):0
Visibility: 30 mile(s):0
Sky conditions: mostly clear
Temperature: 48 F (9 C)
Dew Point: 48 F (9 C)
Relative Humidity: 100%
Pressure (altimeter): 30 in. Hg (1015 hPa)
ob: CYVR 221700Z VRB02KT 30SM FEW005 FEW250 09/09 A3000 RMK CF1CI2 CF TR CONTRAILS SLP160
cycle: 17

Station Type Date Time Source
CYVR TAF 2018/10/22 15:57 UTC NOAA

TAF
AMD TAF
AMD CYVR 221454Z 2215/2318 VRB03KT 1/2SM FG SCT001 SCT240
TEMPO 2215/2219 2SM BR
BECMG 2217/2219 P6SM NSW
FM221900 27006KT P6SM SCT250
BECMG 2302/2304 VRB03KT
FM230900 10005KT P6SM VCFG FEW002 PROB40 2309/2318 1/2SM FG VV002
RMK NXT FCST BY 221800Z


Example: see airport list